sensor_id;sensor_type;location;lat;lon;timestamp;P1;durP1;ratioP1;P2;durP2;ratioP2
3939;SDS011;1984;48.312;9.244;2023-04-24T00:01:12;0.70;;;0.70;;
3939;SDS011;1984;48.312;9.244;2023-04-24T00:03:39;2.20;;;1.30;;
3939;SDS011;1984;48.312;9.244;2023-04-24T00:06:05;3.03;;;0.90;;
3939;SDS011;1984;48.312;9.244;2023-04-24T00:08:32;0.83;;;0.80;;
3939;SDS011;1984;48.312;9.244;2023-04-24T00:10:58;3.50;;;0.90;;
3939;SDS011;1984;48.312;9.244;2023-04-24T00:13:24;0.90;;;0.90;;
3939;SDS011;1984;48.312;9.244;2023-04-24T00:15:50;0.80;;;0.80;;
3939;SDS011;1984;48.312;9.244;2023-04-24T00:18:15;0.77;;;0.77;;
3939;SDS011;1984;48.312;9.244;2023-04-24T00:20:41;2.40;;;0.90;;
3939;SDS011;1984;48.312;9.244;2023-04-24T00:23:08;0.80;;;0.80;;
3939;SDS011;1984;48.312;9.244;2023-04-24T00:25:34;2.60;;;1.10;;
3939;SDS011;1984;48.312;9.244;2023-04-24T00:27:59;1.07;;;0.90;;
3939;SDS011;1984;48.312;9.244;2023-04-24T00:30:25;1.43;;;0.73;;
3939;SDS011;1984;48.312;9.244;2023-04-24T00:32:51;2.27;;;1.00;;
3939;SDS011;1984;48.312;9.244;2023-04-24T00:35:16;1.13;;;0.90;;
3939;SDS011;1984;48.312;9.244;2023-04-24T00:37:42;1.57;;;0.80;;
3939;SDS011;1984;48.312;9.244;2023-04-24T00:40:07;0.83;;;0.83;;
3939;SDS011;1984;48.312;9.244;2023-04-24T00:42:33;0.80;;;0.80;;
3939;SDS011;1984;48.312;9.244;2023-04-24T00:44:59;0.70;;;0.70;;
3939;SDS011;1984;48.312;9.244;2023-04-24T00:47:26;0.90;;;0.90;;
3939;SDS011;1984;48.312;9.244;2023-04-24T00:49:53;1.20;;;0.87;;
3939;SDS011;1984;48.312;9.244;2023-04-24T00:52:18;7.00;;;1.00;;
3939;SDS011;1984;48.312;9.244;2023-04-24T00:54:45;0.73;;;0.67;;
3939;SDS011;1984;48.312;9.244;2023-04-24T00:57:11;0.80;;;0.80;;
3939;SDS011;1984;48.312;9.244;2023-04-24T00:59:39;2.30;;;0.80;;
3939;SDS011;1984;48.312;9.244;2023-04-24T01:02:06;3.60;;;0.90;;
3939;SDS011;1984;48.312;9.244;2023-04-24T01:04:33;0.80;;;0.80;;
3939;SDS011;1984;48.312;9.244;2023-04-24T01:06:59;1.23;;;0.80;;
3939;SDS011;1984;48.312;9.244;2023-04-24T01:09:25;0.90;;;0.90;;
3939;SDS011;1984;48.312;9.244;2023-04-24T01:11:51;0.70;;;0.70;;
3939;SDS011;1984;48.312;9.244;2023-04-24T01:14:17;1.73;;;1.47;;
3939;SDS011;1984;48.312;9.244;2023-04-24T01:16:43;2.67;;;1.07;;
3939;SDS011;1984;48.312;9.244;2023-04-24T01:19:09;1.30;;;1.30;;
3939;SDS011;1984;48.312;9.244;2023-04-24T01:21:36;0.87;;;0.83;;
3939;SDS011;1984;48.312;9.244;2023-04-24T01:24:06;1.07;;;1.07;;
3939;SDS011;1984;48.312;9.244;2023-04-24T01:26:32;1.00;;;1.00;;
3939;SDS011;1984;48.312;9.244;2023-04-24T01:28:58;6.43;;;1.17;;
3939;SDS011;1984;48.312;9.244;2023-04-24T01:31:23;4.10;;;0.97;;
3939;SDS011;1984;48.312;9.244;2023-04-24T01:33:50;1.00;;;0.87;;
3939;SDS011;1984;48.312;9.244;2023-04-24T01:36:16;0.80;;;0.80;;
3939;SDS011;1984;48.312;9.244;2023-04-24T01:38:43;1.07;;;1.00;;
3939;SDS011;1984;48.312;9.244;2023-04-24T01:41:08;0.87;;;0.70;;
3939;SDS011;1984;48.312;9.244;2023-04-24T01:43:35;0.83;;;0.83;;
3939;SDS011;1984;48.312;9.244;2023-04-24T01:46:00;2.23;;;0.97;;
3939;SDS011;1984;48.312;9.244;2023-04-24T01:48:26;1.00;;;0.90;;
3939;SDS011;1984;48.312;9.244;2023-04-24T01:50:52;0.90;;;0.90;;
3939;SDS011;1984;48.312;9.244;2023-04-24T01:53:17;0.80;;;0.70;;
3939;SDS011;1984;48.312;9.244;2023-04-24T01:55:43;1.07;;;0.90;;
3939;SDS011;1984;48.312;9.244;2023-04-24T01:58:08;0.87;;;0.57;;
3939;SDS011;1984;48.312;9.244;2023-04-24T02:00:34;0.60;;;0.60;;
3939;SDS011;1984;48.312;9.244;2023-04-24T02:03:00;0.73;;;0.73;;
3939;SDS011;1984;48.312;9.244;2023-04-24T02:05:26;2.73;;;0.80;;
3939;SDS011;1984;48.312;9.244;2023-04-24T02:07:52;0.70;;;0.70;;
3939;SDS011;1984;48.312;9.244;2023-04-24T02:10:18;1.13;;;0.70;;
3939;SDS011;1984;48.312;9.244;2023-04-24T02:12:43;0.70;;;0.70;;
3939;SDS011;1984;48.312;9.244;2023-04-24T02:15:09;1.90;;;0.60;;
3939;SDS011;1984;48.312;9.244;2023-04-24T02:17:35;0.90;;;0.90;;
3939;SDS011;1984;48.312;9.244;2023-04-24T02:20:01;0.80;;;0.60;;
3939;SDS011;1984;48.312;9.244;2023-04-24T02:22:26;5.90;;;1.07;;
3939;SDS011;1984;48.312;9.244;2023-04-24T02:24:52;0.77;;;0.70;;
3939;SDS011;1984;48.312;9.244;2023-04-24T02:27:17;3.53;;;0.70;;
3939;SDS011;1984;48.312;9.244;2023-04-24T02:29:43;2.87;;;1.00;;
3939;SDS011;1984;48.312;9.244;2023-04-24T02:32:08;1.57;;;1.47;;
3939;SDS011;1984;48.312;9.244;2023-04-24T02:34:36;1.27;;;0.90;;
3939;SDS011;1984;48.312;9.244;2023-04-24T02:37:02;0.80;;;0.70;;
3939;SDS011;1984;48.312;9.244;2023-04-24T02:39:28;0.80;;;0.70;;
3939;SDS011;1984;48.312;9.244;2023-04-24T02:41:54;0.60;;;0.60;;
3939;SDS011;1984;48.312;9.244;2023-04-24T02:44:19;0.83;;;0.83;;
3939;SDS011;1984;48.312;9.244;2023-04-24T02:46:46;0.70;;;0.70;;
3939;SDS011;1984;48.312;9.244;2023-04-24T02:49:12;0.60;;;0.60;;
3939;SDS011;1984;48.312;9.244;2023-04-24T02:51:37;1.33;;;0.70;;
3939;SDS011;1984;48.312;9.244;2023-04-24T02:54:05;0.73;;;0.73;;
3939;SDS011;1984;48.312;9.244;2023-04-24T02:56:32;6.70;;;0.80;;
3939;SDS011;1984;48.312;9.244;2023-04-24T02:58:58;0.70;;;0.70;;
3939;SDS011;1984;48.312;9.244;2023-04-24T03:01:23;0.70;;;0.70;;
3939;SDS011;1984;48.312;9.244;2023-04-24T03:03:50;1.73;;;0.60;;
3939;SDS011;1984;48.312;9.244;2023-04-24T03:06:15;1.00;;;0.80;;
3939;SDS011;1984;48.312;9.244;2023-04-24T03:08:41;0.70;;;0.70;;
3939;SDS011;1984;48.312;9.244;2023-04-24T03:11:06;1.00;;;0.90;;
3939;SDS011;1984;48.312;9.244;2023-04-24T03:13:32;1.40;;;1.30;;
3939;SDS011;1984;48.312;9.244;2023-04-24T03:15:57;3.03;;;1.50;;
3939;SDS011;1984;48.312;9.244;2023-04-24T03:18:23;2.40;;;1.03;;
3939;SDS011;1984;48.312;9.244;2023-04-24T03:20:48;0.87;;;0.87;;
3939;SDS011;1984;48.312;9.244;2023-04-24T03:23:14;1.77;;;0.90;;
3939;SDS011;1984;48.312;9.244;2023-04-24T03:25:40;1.77;;;1.20;;
3939;SDS011;1984;48.312;9.244;2023-04-24T03:28:07;1.03;;;0.93;;
3939;SDS011;1984;48.312;9.244;2023-04-24T03:30:33;1.73;;;1.23;;
3939;SDS011;1984;48.312;9.244;2023-04-24T03:32:58;3.03;;;0.90;;
3939;SDS011;1984;48.312;9.244;2023-04-24T03:35:24;1.17;;;0.90;;
3939;SDS011;1984;48.312;9.244;2023-04-24T03:37:49;1.27;;;1.00;;
3939;SDS011;1984;48.312;9.244;2023-04-24T03:40:15;4.90;;;1.03;;
3939;SDS011;1984;48.312;9.244;2023-04-24T03:42:40;1.53;;;0.90;;
3939;SDS011;1984;48.312;9.244;2023-04-24T03:45:06;1.10;;;1.10;;
3939;SDS011;1984;48.312;9.244;2023-04-24T03:47:32;2.70;;;1.47;;
3939;SDS011;1984;48.312;9.244;2023-04-24T03:49:58;1.10;;;1.10;;
3939;SDS011;1984;48.312;9.244;2023-04-24T03:52:23;1.60;;;1.50;;
3939;SDS011;1984;48.312;9.244;2023-04-24T03:54:49;1.80;;;1.67;;
3939;SDS011;1984;48.312;9.244;2023-04-24T03:57:14;2.43;;;1.33;;
3939;SDS011;1984;48.312;9.244;2023-04-24T03:59:40;2.30;;;1.27;;
3939;SDS011;1984;48.312;9.244;2023-04-24T04:02:05;1.30;;;1.20;;
3939;SDS011;1984;48.312;9.244;2023-04-24T04:04:31;3.33;;;1.23;;
3939;SDS011;1984;48.312;9.244;2023-04-24T04:06:56;2.23;;;1.33;;
3939;SDS011;1984;48.312;9.244;2023-04-24T04:09:26;0.90;;;0.90;;
3939;SDS011;1984;48.312;9.244;2023-04-24T04:11:51;1.90;;;1.33;;
3939;SDS011;1984;48.312;9.244;2023-04-24T04:14:17;2.30;;;1.10;;
3939;SDS011;1984;48.312;9.244;2023-04-24T04:16:42;3.00;;;1.73;;
3939;SDS011;1984;48.312;9.244;2023-04-24T04:19:08;3.43;;;2.30;;
3939;SDS011;1984;48.312;9.244;2023-04-24T04:21:34;1.00;;;1.00;;
3939;SDS011;1984;48.312;9.244;2023-04-24T04:23:59;1.33;;;1.23;;
3939;SDS011;1984;48.312;9.244;2023-04-24T04:26:25;1.30;;;1.20;;
3939;SDS011;1984;48.312;9.244;2023-04-24T04:28:51;1.00;;;1.00;;
3939;SDS011;1984;48.312;9.244;2023-04-24T04:31:17;1.10;;;1.00;;
3939;SDS011;1984;48.312;9.244;2023-04-24T04:33:43;2.40;;;1.20;;
3939;SDS011;1984;48.312;9.244;2023-04-24T04:36:09;1.20;;;1.10;;
3939;SDS011;1984;48.312;9.244;2023-04-24T04:38:34;1.20;;;1.10;;
3939;SDS011;1984;48.312;9.244;2023-04-24T04:41:02;1.47;;;0.90;;
3939;SDS011;1984;48.312;9.244;2023-04-24T04:43:27;1.10;;;1.00;;
3939;SDS011;1984;48.312;9.244;2023-04-24T04:45:53;2.53;;;1.83;;
3939;SDS011;1984;48.312;9.244;2023-04-24T04:48:19;3.60;;;1.80;;
3939;SDS011;1984;48.312;9.244;2023-04-24T04:50:45;1.50;;;1.40;;
3939;SDS011;1984;48.312;9.244;2023-04-24T04:53:10;1.47;;;1.37;;
3939;SDS011;1984;48.312;9.244;2023-04-24T04:55:36;2.33;;;1.00;;
3939;SDS011;1984;48.312;9.244;2023-04-24T04:58:02;1.20;;;1.10;;
3939;SDS011;1984;48.312;9.244;2023-04-24T05:00:28;2.00;;;1.00;;
3939;SDS011;1984;48.312;9.244;2023-04-24T05:02:58;1.03;;;1.03;;
3939;SDS011;1984;48.312;9.244;2023-04-24T05:05:24;1.90;;;1.00;;
3939;SDS011;1984;48.312;9.244;2023-04-24T05:07:49;1.43;;;1.27;;
3939;SDS011;1984;48.312;9.244;2023-04-24T05:10:15;2.63;;;2.20;;
3939;SDS011;1984;48.312;9.244;2023-04-24T05:12:40;1.13;;;1.03;;
3939;SDS011;1984;48.312;9.244;2023-04-24T05:15:06;3.70;;;0.97;;
3939;SDS011;1984;48.312;9.244;2023-04-24T05:17:32;3.03;;;1.30;;
3939;SDS011;1984;48.312;9.244;2023-04-24T05:19:57;0.90;;;0.90;;
3939;SDS011;1984;48.312;9.244;2023-04-24T05:22:23;0.83;;;0.83;;
3939;SDS011;1984;48.312;9.244;2023-04-24T05:24:48;0.90;;;0.90;;
3939;SDS011;1984;48.312;9.244;2023-04-24T05:27:14;1.00;;;1.00;;
3939;SDS011;1984;48.312;9.244;2023-04-24T05:29:40;1.37;;;1.27;;
3939;SDS011;1984;48.312;9.244;2023-04-24T05:32:05;1.37;;;1.27;;
3939;SDS011;1984;48.312;9.244;2023-04-24T05:34:31;1.00;;;1.00;;
3939;SDS011;1984;48.312;9.244;2023-04-24T05:36:57;2.40;;;1.03;;
3939;SDS011;1984;48.312;9.244;2023-04-24T05:39:23;1.33;;;1.27;;
3939;SDS011;1984;48.312;9.244;2023-04-24T05:41:50;4.30;;;1.40;;
3939;SDS011;1984;48.312;9.244;2023-04-24T05:44:15;1.70;;;1.60;;
3939;SDS011;1984;48.312;9.244;2023-04-24T05:46:41;0.97;;;0.97;;
3939;SDS011;1984;48.312;9.244;2023-04-24T05:49:06;1.47;;;1.37;;
3939;SDS011;1984;48.312;9.244;2023-04-24T05:51:32;2.10;;;1.40;;
3939;SDS011;1984;48.312;9.244;2023-04-24T05:53:58;1.20;;;1.10;;
3939;SDS011;1984;48.312;9.244;2023-04-24T05:56:23;1.63;;;1.47;;
3939;SDS011;1984;48.312;9.244;2023-04-24T05:58:49;1.20;;;1.13;;
3939;SDS011;1984;48.312;9.244;2023-04-24T06:01:14;2.93;;;1.60;;
3939;SDS011;1984;48.312;9.244;2023-04-24T06:03:40;1.23;;;1.20;;
3939;SDS011;1984;48.312;9.244;2023-04-24T06:06:06;1.77;;;1.37;;
3939;SDS011;1984;48.312;9.244;2023-04-24T06:08:33;1.27;;;1.17;;
3939;SDS011;1984;48.312;9.244;2023-04-24T06:10:59;1.73;;;1.63;;
3939;SDS011;1984;48.312;9.244;2023-04-24T06:13:25;3.57;;;1.43;;
3939;SDS011;1984;48.312;9.244;2023-04-24T06:15:50;1.30;;;1.20;;
3939;SDS011;1984;48.312;9.244;2023-04-24T06:18:16;2.20;;;1.30;;
3939;SDS011;1984;48.312;9.244;2023-04-24T06:20:42;29.63;;;1.80;;
3939;SDS011;1984;48.312;9.244;2023-04-24T06:23:07;1.53;;;1.43;;
3939;SDS011;1984;48.312;9.244;2023-04-24T06:25:33;1.87;;;1.77;;
3939;SDS011;1984;48.312;9.244;2023-04-24T06:27:59;1.23;;;1.13;;
3939;SDS011;1984;48.312;9.244;2023-04-24T06:30:24;1.50;;;1.40;;
3939;SDS011;1984;48.312;9.244;2023-04-24T06:32:50;1.50;;;1.40;;
3939;SDS011;1984;48.312;9.244;2023-04-24T06:35:16;2.00;;;1.43;;
3939;SDS011;1984;48.312;9.244;2023-04-24T06:37:42;1.23;;;1.20;;
3939;SDS011;1984;48.312;9.244;2023-04-24T06:40:08;5.80;;;2.43;;
3939;SDS011;1984;48.312;9.244;2023-04-24T06:42:35;2.40;;;2.00;;
3939;SDS011;1984;48.312;9.244;2023-04-24T06:45:00;1.50;;;1.37;;
3939;SDS011;1984;48.312;9.244;2023-04-24T06:47:26;2.07;;;1.97;;
3939;SDS011;1984;48.312;9.244;2023-04-24T06:49:52;1.30;;;1.30;;
3939;SDS011;1984;48.312;9.244;2023-04-24T06:52:18;2.00;;;1.90;;
3939;SDS011;1984;48.312;9.244;2023-04-24T06:54:44;1.43;;;1.40;;
3939;SDS011;1984;48.312;9.244;2023-04-24T06:57:09;2.20;;;1.60;;
3939;SDS011;1984;48.312;9.244;2023-04-24T06:59:35;2.13;;;1.77;;
3939;SDS011;1984;48.312;9.244;2023-04-24T07:02:01;1.67;;;1.30;;
3939;SDS011;1984;48.312;9.244;2023-04-24T07:04:27;1.40;;;1.27;;
3939;SDS011;1984;48.312;9.244;2023-04-24T07:06:54;1.40;;;1.30;;
3939;SDS011;1984;48.312;9.244;2023-04-24T07:09:20;4.87;;;1.73;;
3939;SDS011;1984;48.312;9.244;2023-04-24T07:11:47;1.67;;;1.57;;
3939;SDS011;1984;48.312;9.244;2023-04-24T07:14:13;1.27;;;1.17;;
3939;SDS011;1984;48.312;9.244;2023-04-24T07:16:39;2.93;;;1.30;;
3939;SDS011;1984;48.312;9.244;2023-04-24T07:19:04;1.00;;;1.00;;
3939;SDS011;1984;48.312;9.244;2023-04-24T07:21:30;1.37;;;1.27;;
3939;SDS011;1984;48.312;9.244;2023-04-24T07:23:56;2.40;;;1.30;;
3939;SDS011;1984;48.312;9.244;2023-04-24T07:26:22;1.50;;;1.40;;
3939;SDS011;1984;48.312;9.244;2023-04-24T07:28:48;1.60;;;1.57;;
3939;SDS011;1984;48.312;9.244;2023-04-24T07:31:13;1.53;;;1.10;;
3939;SDS011;1984;48.312;9.244;2023-04-24T07:33:39;1.10;;;1.10;;
3939;SDS011;1984;48.312;9.244;2023-04-24T07:36:05;1.33;;;1.23;;
3939;SDS011;1984;48.312;9.244;2023-04-24T07:38:31;1.73;;;1.20;;
3939;SDS011;1984;48.312;9.244;2023-04-24T07:40:56;1.67;;;1.57;;
3939;SDS011;1984;48.312;9.244;2023-04-24T07:43:22;1.23;;;1.23;;
3939;SDS011;1984;48.312;9.244;2023-04-24T07:45:49;1.00;;;1.00;;
3939;SDS011;1984;48.312;9.244;2023-04-24T07:48:15;3.27;;;1.13;;
3939;SDS011;1984;48.312;9.244;2023-04-24T07:50:42;5.73;;;1.57;;
3939;SDS011;1984;48.312;9.244;2023-04-24T07:53:08;1.10;;;1.00;;
3939;SDS011;1984;48.312;9.244;2023-04-24T07:55:34;6.20;;;0.90;;
3939;SDS011;1984;48.312;9.244;2023-04-24T07:57:59;1.10;;;1.00;;
3939;SDS011;1984;48.312;9.244;2023-04-24T08:00:25;0.97;;;0.97;;
3939;SDS011;1984;48.312;9.244;2023-04-24T08:02:50;1.40;;;1.30;;
3939;SDS011;1984;48.312;9.244;2023-04-24T08:05:16;2.90;;;1.23;;
3939;SDS011;1984;48.312;9.244;2023-04-24T08:07:41;4.20;;;1.47;;
3939;SDS011;1984;48.312;9.244;2023-04-24T08:10:07;0.87;;;0.87;;
3939;SDS011;1984;48.312;9.244;2023-04-24T08:12:35;1.10;;;1.00;;
3939;SDS011;1984;48.312;9.244;2023-04-24T08:15:00;1.30;;;1.27;;
3939;SDS011;1984;48.312;9.244;2023-04-24T08:17:26;1.43;;;1.27;;
3939;SDS011;1984;48.312;9.244;2023-04-24T08:19:51;1.77;;;1.10;;
3939;SDS011;1984;48.312;9.244;2023-04-24T08:22:23;1.50;;;1.40;;
3939;SDS011;1984;48.312;9.244;2023-04-24T08:24:49;1.50;;;1.40;;
3939;SDS011;1984;48.312;9.244;2023-04-24T08:27:15;2.60;;;1.27;;
3939;SDS011;1984;48.312;9.244;2023-04-24T08:29:40;1.13;;;1.13;;
3939;SDS011;1984;48.312;9.244;2023-04-24T08:32:06;1.43;;;1.33;;
3939;SDS011;1984;48.312;9.244;2023-04-24T08:34:31;1.77;;;1.33;;
3939;SDS011;1984;48.312;9.244;2023-04-24T08:36:57;2.10;;;1.27;;
3939;SDS011;1984;48.312;9.244;2023-04-24T08:39:22;1.07;;;1.07;;
3939;SDS011;1984;48.312;9.244;2023-04-24T08:41:48;1.50;;;1.40;;
3939;SDS011;1984;48.312;9.244;2023-04-24T08:44:15;2.60;;;1.50;;
3939;SDS011;1984;48.312;9.244;2023-04-24T08:46:42;1.93;;;1.33;;
3939;SDS011;1984;48.312;9.244;2023-04-24T08:49:10;2.40;;;1.37;;
3939;SDS011;1984;48.312;9.244;2023-04-24T08:51:38;1.60;;;1.50;;
3939;SDS011;1984;48.312;9.244;2023-04-24T08:54:04;2.83;;;1.50;;
3939;SDS011;1984;48.312;9.244;2023-04-24T08:56:33;1.60;;;1.50;;
3939;SDS011;1984;48.312;9.244;2023-04-24T08:59:02;1.30;;;1.30;;
3939;SDS011;1984;48.312;9.244;2023-04-24T09:01:29;3.07;;;1.60;;
3939;SDS011;1984;48.312;9.244;2023-04-24T09:03:57;1.83;;;1.73;;
3939;SDS011;1984;48.312;9.244;2023-04-24T09:06:26;1.80;;;1.70;;
3939;SDS011;1984;48.312;9.244;2023-04-24T09:08:52;1.93;;;1.43;;
3939;SDS011;1984;48.312;9.244;2023-04-24T09:11:20;1.03;;;1.00;;
3939;SDS011;1984;48.312;9.244;2023-04-24T09:13:49;1.47;;;1.27;;
3939;SDS011;1984;48.312;9.244;2023-04-24T09:16:15;1.43;;;1.33;;
3939;SDS011;1984;48.312;9.244;2023-04-24T09:18:40;1.30;;;1.20;;
3939;SDS011;1984;48.312;9.244;2023-04-24T09:21:07;1.60;;;1.50;;
3939;SDS011;1984;48.312;9.244;2023-04-24T09:23:33;1.57;;;1.50;;
3939;SDS011;1984;48.312;9.244;2023-04-24T09:26:00;2.23;;;1.33;;
3939;SDS011;1984;48.312;9.244;2023-04-24T09:28:29;1.70;;;1.53;;
3939;SDS011;1984;48.312;9.244;2023-04-24T09:31:13;3.10;;;1.40;;
3939;SDS011;1984;48.312;9.244;2023-04-24T09:34:02;3.27;;;3.00;;
3939;SDS011;1984;48.312;9.244;2023-04-24T09:36:31;3.40;;;1.73;;
3939;SDS011;1984;48.312;9.244;2023-04-24T09:39:01;4.63;;;1.50;;
3939;SDS011;1984;48.312;9.244;2023-04-24T09:41:29;1.70;;;1.40;;
3939;SDS011;1984;48.312;9.244;2023-04-24T09:43:56;1.83;;;1.73;;
3939;SDS011;1984;48.312;9.244;2023-04-24T09:46:29;2.20;;;1.60;;
3939;SDS011;1984;48.312;9.244;2023-04-24T09:48:57;2.00;;;1.67;;
3939;SDS011;1984;48.312;9.244;2023-04-24T09:51:35;6.40;;;1.70;;
3939;SDS011;1984;48.312;9.244;2023-04-24T09:54:03;1.67;;;1.37;;
3939;SDS011;1984;48.312;9.244;2023-04-24T09:56:33;3.13;;;1.60;;
3939;SDS011;1984;48.312;9.244;2023-04-24T09:59:05;3.33;;;1.50;;
3939;SDS011;1984;48.312;9.244;2023-04-24T10:01:32;1.40;;;1.30;;
3939;SDS011;1984;48.312;9.244;2023-04-24T10:03:58;4.13;;;1.33;;
3939;SDS011;1984;48.312;9.244;2023-04-24T10:06:29;4.27;;;1.43;;
3939;SDS011;1984;48.312;9.244;2023-04-24T10:08:58;3.33;;;1.40;;
3939;SDS011;1984;48.312;9.244;2023-04-24T10:11:28;1.47;;;1.33;;
3939;SDS011;1984;48.312;9.244;2023-04-24T10:13:54;2.23;;;1.40;;
3939;SDS011;1984;48.312;9.244;2023-04-24T10:16:21;1.80;;;1.70;;
3939;SDS011;1984;48.312;9.244;2023-04-24T10:18:47;6.00;;;1.07;;
3939;SDS011;1984;48.312;9.244;2023-04-24T10:21:13;2.07;;;1.30;;
3939;SDS011;1984;48.312;9.244;2023-04-24T10:23:40;1.43;;;1.30;;
3939;SDS011;1984;48.312;9.244;2023-04-24T10:26:08;1.50;;;1.40;;
3939;SDS011;1984;48.312;9.244;2023-04-24T10:28:36;1.83;;;1.33;;
3939;SDS011;1984;48.312;9.244;2023-04-24T10:31:02;2.87;;;1.67;;
3939;SDS011;1984;48.312;9.244;2023-04-24T10:33:28;1.97;;;1.70;;
3939;SDS011;1984;48.312;9.244;2023-04-24T10:35:55;6.00;;;2.07;;
3939;SDS011;1984;48.312;9.244;2023-04-24T10:38:24;1.70;;;1.60;;
3939;SDS011;1984;48.312;9.244;2023-04-24T10:40:51;2.50;;;1.93;;
3939;SDS011;1984;48.312;9.244;2023-04-24T10:43:31;1.97;;;1.87;;
3939;SDS011;1984;48.312;9.244;2023-04-24T10:46:02;1.57;;;1.47;;
3939;SDS011;1984;48.312;9.244;2023-04-24T10:48:29;2.30;;;1.87;;
3939;SDS011;1984;48.312;9.244;2023-04-24T10:50:55;1.87;;;1.77;;
3939;SDS011;1984;48.312;9.244;2023-04-24T10:53:22;4.50;;;1.60;;
3939;SDS011;1984;48.312;9.244;2023-04-24T10:55:58;2.60;;;2.30;;
3939;SDS011;1984;48.312;9.244;2023-04-24T10:58:44;2.50;;;2.30;;
3939;SDS011;1984;48.312;9.244;2023-04-24T11:01:32;6.83;;;1.90;;
3939;SDS011;1984;48.312;9.244;2023-04-24T11:03:59;4.20;;;1.60;;
3939;SDS011;1984;48.312;9.244;2023-04-24T11:06:31;2.20;;;2.00;;
3939;SDS011;1984;48.312;9.244;2023-04-24T11:09:01;1.97;;;1.70;;
3939;SDS011;1984;48.312;9.244;2023-04-24T11:11:31;1.80;;;1.43;;
3939;SDS011;1984;48.312;9.244;2023-04-24T11:16:28;1.40;;;1.30;;
3939;SDS011;1984;48.312;9.244;2023-04-24T11:22:03;1.70;;;1.60;;
3939;SDS011;1984;48.312;9.244;2023-04-24T11:24:39;3.93;;;1.73;;
3939;SDS011;1984;48.312;9.244;2023-04-24T11:27:14;2.70;;;1.40;;
3939;SDS011;1984;48.312;9.244;2023-04-24T11:32:16;1.13;;;1.13;;
3939;SDS011;1984;48.312;9.244;2023-04-24T11:34:48;1.37;;;1.20;;
3939;SDS011;1984;48.312;9.244;2023-04-24T11:37:15;3.27;;;1.30;;
3939;SDS011;1984;48.312;9.244;2023-04-24T11:39:41;2.63;;;1.10;;
3939;SDS011;1984;48.312;9.244;2023-04-24T11:42:07;4.47;;;1.20;;
3939;SDS011;1984;48.312;9.244;2023-04-24T11:44:34;2.00;;;1.20;;
3939;SDS011;1984;48.312;9.244;2023-04-24T11:47:02;1.90;;;1.00;;
3939;SDS011;1984;48.312;9.244;2023-04-24T11:49:29;1.30;;;1.20;;
3939;SDS011;1984;48.312;9.244;2023-04-24T11:51:55;1.03;;;0.90;;
3939;SDS011;1984;48.312;9.244;2023-04-24T11:54:20;1.67;;;1.00;;
3939;SDS011;1984;48.312;9.244;2023-04-24T11:56:47;0.80;;;0.80;;
3939;SDS011;1984;48.312;9.244;2023-04-24T11:59:13;1.40;;;1.03;;
3939;SDS011;1984;48.312;9.244;2023-04-24T12:01:42;0.73;;;0.73;;
3939;SDS011;1984;48.312;9.244;2023-04-24T12:04:09;0.80;;;0.80;;
3939;SDS011;1984;48.312;9.244;2023-04-24T12:06:35;0.70;;;0.70;;
3939;SDS011;1984;48.312;9.244;2023-04-24T12:09:00;3.53;;;1.00;;
3939;SDS011;1984;48.312;9.244;2023-04-24T12:11:26;2.20;;;0.80;;
3939;SDS011;1984;48.312;9.244;2023-04-24T12:13:51;0.80;;;0.80;;
3939;SDS011;1984;48.312;9.244;2023-04-24T12:16:17;1.20;;;1.00;;
3939;SDS011;1984;48.312;9.244;2023-04-24T12:18:43;1.23;;;0.70;;
3939;SDS011;1984;48.312;9.244;2023-04-24T12:23:43;2.40;;;1.10;;
3939;SDS011;1984;48.312;9.244;2023-04-24T12:26:18;1.93;;;1.17;;
3939;SDS011;1984;48.312;9.244;2023-04-24T12:28:48;1.30;;;1.20;;
3939;SDS011;1984;48.312;9.244;2023-04-24T12:31:15;1.20;;;1.13;;
3939;SDS011;1984;48.312;9.244;2023-04-24T12:33:41;2.20;;;1.10;;
3939;SDS011;1984;48.312;9.244;2023-04-24T12:36:09;1.07;;;0.90;;
3939;SDS011;1984;48.312;9.244;2023-04-24T12:38:35;2.83;;;0.90;;
3939;SDS011;1984;48.312;9.244;2023-04-24T12:41:06;1.20;;;1.20;;
3939;SDS011;1984;48.312;9.244;2023-04-24T12:43:32;0.90;;;0.90;;
3939;SDS011;1984;48.312;9.244;2023-04-24T12:45:57;2.20;;;1.00;;
3939;SDS011;1984;48.312;9.244;2023-04-24T12:48:24;2.47;;;1.20;;
3939;SDS011;1984;48.312;9.244;2023-04-24T12:50:50;1.13;;;1.03;;
3939;SDS011;1984;48.312;9.244;2023-04-24T12:53:16;3.20;;;1.13;;
3939;SDS011;1984;48.312;9.244;2023-04-24T12:55:41;1.17;;;1.17;;
3939;SDS011;1984;48.312;9.244;2023-04-24T12:58:07;4.13;;;1.17;;
3939;SDS011;1984;48.312;9.244;2023-04-24T13:00:33;2.00;;;1.07;;
3939;SDS011;1984;48.312;9.244;2023-04-24T13:02:58;1.17;;;1.13;;
3939;SDS011;1984;48.312;9.244;2023-04-24T13:05:24;1.37;;;1.27;;
3939;SDS011;1984;48.312;9.244;2023-04-24T13:07:49;2.83;;;1.50;;
3939;SDS011;1984;48.312;9.244;2023-04-24T13:10:15;1.37;;;1.20;;
3939;SDS011;1984;48.312;9.244;2023-04-24T13:12:41;1.17;;;0.93;;
3939;SDS011;1984;48.312;9.244;2023-04-24T13:15:10;1.80;;;1.10;;
3939;SDS011;1984;48.312;9.244;2023-04-24T13:17:35;1.30;;;1.20;;
3939;SDS011;1984;48.312;9.244;2023-04-24T13:20:01;1.27;;;1.27;;
3939;SDS011;1984;48.312;9.244;2023-04-24T13:22:27;1.90;;;1.00;;
3939;SDS011;1984;48.312;9.244;2023-04-24T13:24:53;2.13;;;1.00;;
3939;SDS011;1984;48.312;9.244;2023-04-24T13:27:18;0.90;;;0.90;;
3939;SDS011;1984;48.312;9.244;2023-04-24T13:29:44;3.13;;;1.10;;
3939;SDS011;1984;48.312;9.244;2023-04-24T13:32:10;2.33;;;1.33;;
3939;SDS011;1984;48.312;9.244;2023-04-24T13:34:35;1.10;;;1.00;;
3939;SDS011;1984;48.312;9.244;2023-04-24T13:37:01;3.43;;;0.87;;
3939;SDS011;1984;48.312;9.244;2023-04-24T13:39:28;1.17;;;1.00;;
3939;SDS011;1984;48.312;9.244;2023-04-24T13:41:54;0.80;;;0.80;;
3939;SDS011;1984;48.312;9.244;2023-04-24T13:44:21;0.97;;;0.90;;
3939;SDS011;1984;48.312;9.244;2023-04-24T13:46:47;1.63;;;1.07;;
3939;SDS011;1984;48.312;9.244;2023-04-24T13:49:15;1.03;;;1.00;;
3939;SDS011;1984;48.312;9.244;2023-04-24T13:51:41;4.43;;;1.00;;
3939;SDS011;1984;48.312;9.244;2023-04-24T13:54:07;1.60;;;1.03;;
3939;SDS011;1984;48.312;9.244;2023-04-24T13:56:32;1.37;;;1.17;;
3939;SDS011;1984;48.312;9.244;2023-04-24T13:58:58;1.43;;;1.37;;
3939;SDS011;1984;48.312;9.244;2023-04-24T14:01:23;1.10;;;1.07;;
3939;SDS011;1984;48.312;9.244;2023-04-24T14:03:53;1.10;;;1.00;;
3939;SDS011;1984;48.312;9.244;2023-04-24T14:06:20;2.10;;;1.10;;
3939;SDS011;1984;48.312;9.244;2023-04-24T14:08:46;1.53;;;1.43;;
3939;SDS011;1984;48.312;9.244;2023-04-24T14:11:12;6.13;;;1.10;;
3939;SDS011;1984;48.312;9.244;2023-04-24T14:13:38;1.10;;;1.10;;
3939;SDS011;1984;48.312;9.244;2023-04-24T14:16:07;1.10;;;1.00;;
3939;SDS011;1984;48.312;9.244;2023-04-24T14:18:33;1.77;;;0.93;;
3939;SDS011;1984;48.312;9.244;2023-04-24T14:20:58;1.10;;;1.00;;
3939;SDS011;1984;48.312;9.244;2023-04-24T14:23:26;1.37;;;1.27;;
3939;SDS011;1984;48.312;9.244;2023-04-24T14:25:51;0.93;;;0.90;;
3939;SDS011;1984;48.312;9.244;2023-04-24T14:28:18;1.40;;;0.80;;
3939;SDS011;1984;48.312;9.244;2023-04-24T14:30:45;1.80;;;1.13;;
3939;SDS011;1984;48.312;9.244;2023-04-24T14:33:11;0.80;;;0.80;;
3939;SDS011;1984;48.312;9.244;2023-04-24T14:35:37;0.97;;;0.97;;
3939;SDS011;1984;48.312;9.244;2023-04-24T14:38:03;0.90;;;0.90;;
3939;SDS011;1984;48.312;9.244;2023-04-24T14:40:28;2.00;;;1.00;;
3939;SDS011;1984;48.312;9.244;2023-04-24T14:42:54;1.90;;;1.80;;
3939;SDS011;1984;48.312;9.244;2023-04-24T14:45:22;1.27;;;0.90;;
3939;SDS011;1984;48.312;9.244;2023-04-24T14:47:47;3.03;;;1.20;;
3939;SDS011;1984;48.312;9.244;2023-04-24T14:50:13;1.03;;;1.00;;
3939;SDS011;1984;48.312;9.244;2023-04-24T14:52:38;1.33;;;1.23;;
3939;SDS011;1984;48.312;9.244;2023-04-24T14:55:04;1.93;;;0.97;;
3939;SDS011;1984;48.312;9.244;2023-04-24T14:57:31;1.57;;;1.10;;
3939;SDS011;1984;48.312;9.244;2023-04-24T14:59:57;1.33;;;0.90;;
3939;SDS011;1984;48.312;9.244;2023-04-24T15:02:23;1.00;;;1.00;;
3939;SDS011;1984;48.312;9.244;2023-04-24T15:04:49;1.27;;;1.00;;
3939;SDS011;1984;48.312;9.244;2023-04-24T15:07:14;1.33;;;1.27;;
3939;SDS011;1984;48.312;9.244;2023-04-24T15:09:40;1.13;;;1.13;;
3939;SDS011;1984;48.312;9.244;2023-04-24T15:12:05;3.27;;;1.03;;
3939;SDS011;1984;48.312;9.244;2023-04-24T15:14:31;1.27;;;0.90;;
3939;SDS011;1984;48.312;9.244;2023-04-24T15:16:57;1.20;;;1.20;;
3939;SDS011;1984;48.312;9.244;2023-04-24T15:19:22;1.00;;;1.00;;
3939;SDS011;1984;48.312;9.244;2023-04-24T15:21:48;1.47;;;1.00;;